createdAt,value
2022-11-04T00:02:13.225Z,29.01
2022-11-04T00:04:43.551Z,29.06
2022-11-04T00:07:33.584Z,29.02
2022-11-04T00:10:03.843Z,29.02
2022-11-04T00:12:33.952Z,29.01
2022-11-04T00:15:23.819Z,29.03
2022-11-04T00:17:54.061Z,29.06
2022-11-04T00:20:42.657Z,29.06
2022-11-04T00:23:47.993Z,29.09
2022-11-04T00:26:36.537Z,29.09
2022-11-04T00:29:06.748Z,29.11
2022-11-04T00:31:55.467Z,29.11
2022-11-04T00:34:25.684Z,29.09
2022-11-04T00:36:55.948Z,29.14
2022-11-04T00:39:26.137Z,29.15
2022-11-04T00:41:56.391Z,29.09
2022-11-04T00:44:26.503Z,29.11
2022-11-04T00:46:56.682Z,29.16
2022-11-04T00:49:26.935Z,29.15
2022-11-04T00:51:57.251Z,29.17
2022-11-04T00:54:27.548Z,29.17
2022-11-04T00:56:57.663Z,29.17
2022-11-04T00:59:27.850Z,29.17
2022-11-04T01:01:59.261Z,29.20
2022-11-04T01:04:29.631Z,29.20
2022-11-04T01:06:59.782Z,29.27
2022-11-04T01:09:30.272Z,29.24
2022-11-04T01:12:00.523Z,29.26
2022-11-04T01:14:30.732Z,29.27
2022-11-04T01:17:00.857Z,29.29
2022-11-04T01:19:32.384Z,29.30
2022-11-04T01:22:02.744Z,29.30
2022-11-04T01:24:32.984Z,29.29
2022-11-04T01:27:04.457Z,29.30
2022-11-04T01:29:34.426Z,29.35
2022-11-04T01:32:04.598Z,29.35
2022-11-04T01:34:39.234Z,29.36
2022-11-04T01:37:12.836Z,29.36
2022-11-04T01:39:43.260Z,29.37
2022-11-04T01:42:17.512Z,29.36
2022-11-04T01:44:54.678Z,29.34
2022-11-04T01:47:33.108Z,29.37
2022-11-04T01:50:13.437Z,29.40
2022-11-04T01:52:52.883Z,29.40
2022-11-04T01:55:26.963Z,29.42
2022-11-04T01:58:00.641Z,29.42
2022-11-04T02:00:30.913Z,29.42
2022-11-04T02:03:07.410Z,29.41
2022-11-04T02:05:38.323Z,29.40
2022-11-04T02:08:10.680Z,29.39
2022-11-04T02:10:44.567Z,29.43
2022-11-04T02:13:14.981Z,29.43
2022-11-04T02:15:47.932Z,29.44
2022-11-04T02:18:36.059Z,29.46
2022-11-04T02:21:44.088Z,29.45
2022-11-04T02:24:44.855Z,29.45
2022-11-04T02:27:17.890Z,29.49
2022-11-04T02:30:06.604Z,29.50
2022-11-04T02:33:17.185Z,29.50
2022-11-04T02:36:02.699Z,29.49
2022-11-04T02:38:41.617Z,29.53
2022-11-04T02:41:25.211Z,29.53
2022-11-04T02:44:17.919Z,29.53
2022-11-04T02:46:54.274Z,29.54
2022-11-04T02:50:09.936Z,29.54
2022-11-04T02:52:52.325Z,29.54
2022-11-04T02:55:25.792Z,29.54
2022-11-04T02:57:59.494Z,29.56
2022-11-04T03:00:31.587Z,29.56
2022-11-04T03:03:10.268Z,29.57
2022-11-04T03:05:45.593Z,29.59
2022-11-04T03:08:33.161Z,29.60
2022-11-04T03:11:25.883Z,29.57
2022-11-04T03:14:01.582Z,29.62
2022-11-04T03:16:56.803Z,29.59
2022-11-04T03:19:56.945Z,29.61
2022-11-04T03:22:32.792Z,29.62
2022-11-04T03:25:04.681Z,29.61
2022-11-04T03:27:53.385Z,29.61
2022-11-04T03:30:26.157Z,29.63
2022-11-04T03:33:24.524Z,29.64
2022-11-04T03:35:55.373Z,29.63
2022-11-04T03:38:26.009Z,29.65
2022-11-04T03:40:56.158Z,29.65
2022-11-04T03:43:31.684Z,29.67
2022-11-04T03:46:02.029Z,29.65
2022-11-04T03:48:32.942Z,29.69
2022-11-04T03:51:03.922Z,29.68
2022-11-04T03:53:35.161Z,29.71
2022-11-04T03:56:11.749Z,29.70
2022-11-04T03:59:18.833Z,29.73
2022-11-04T04:02:05.487Z,29.73
2022-11-04T04:04:45.669Z,29.73
2022-11-04T04:07:52.540Z,29.75
2022-11-04T04:10:41.258Z,29.70
2022-11-04T04:13:21.065Z,29.74
2022-11-04T04:16:01.670Z,29.75
2022-11-04T04:19:00.391Z,29.76
2022-11-04T04:21:37.618Z,29.77
2022-11-04T04:24:30.719Z,29.77
2022-11-04T04:27:20.569Z,29.77
2022-11-04T04:29:53.715Z,29.77
2022-11-04T04:32:26.769Z,29.79
2022-11-04T04:35:17.690Z,29.78
2022-11-04T04:37:48.756Z,29.76
2022-11-04T04:40:41.308Z,29.78
2022-11-04T04:43:37.271Z,29.82
2022-11-04T04:46:07.779Z,29.84
2022-11-04T04:48:38.195Z,29.82
2022-11-04T04:51:08.697Z,29.84
2022-11-04T04:53:38.900Z,29.83
2022-11-04T04:56:09.175Z,29.86
2022-11-04T04:58:39.530Z,29.86
2022-11-04T05:01:11.384Z,29.88
2022-11-04T05:03:45.129Z,29.86
2022-11-04T05:06:15.960Z,29.87
2022-11-04T05:08:46.602Z,29.87
2022-11-04T05:11:18.247Z,29.89
2022-11-04T05:13:49.803Z,29.90
2022-11-04T05:16:19.889Z,29.91
2022-11-04T05:18:49.916Z,29.91
2022-11-04T05:21:20.255Z,29.92
2022-11-04T05:23:50.461Z,29.93
2022-11-04T05:26:20.798Z,29.95
2022-11-04T05:28:51.160Z,29.94
2022-11-04T05:31:21.595Z,29.96
2022-11-04T05:33:51.873Z,29.95
2022-11-04T05:36:22.098Z,29.95
2022-11-04T05:38:59.888Z,29.93
2022-11-04T05:41:30.900Z,29.96
2022-11-04T05:44:03.788Z,29.93
2022-11-04T05:46:35.055Z,29.95
2022-11-04T05:49:05.409Z,29.96
2022-11-04T05:51:36.158Z,29.97
2022-11-04T05:54:06.442Z,29.94
2022-11-04T05:56:36.859Z,29.93
2022-11-04T05:59:07.105Z,29.96
2022-11-04T06:01:38.956Z,29.96
2022-11-04T06:04:11.186Z,29.99
2022-11-04T06:06:41.884Z,29.98
2022-11-04T06:09:12.457Z,29.98
2022-11-04T06:11:42.908Z,30.00
2022-11-04T06:14:18.405Z,30.00
2022-11-04T06:16:49.248Z,30.02
2022-11-04T06:19:19.441Z,30.01
2022-11-04T06:21:49.821Z,30.03
2022-11-04T06:24:20.079Z,30.02
2022-11-04T06:26:50.187Z,30.03
2022-11-04T06:29:20.492Z,30.02
2022-11-04T06:31:50.777Z,30.01
2022-11-04T06:34:21.109Z,30.04
2022-11-04T06:36:54.606Z,30.02
2022-11-04T06:39:24.865Z,30.01
2022-11-04T06:41:56.615Z,29.99
2022-11-04T06:44:29.708Z,30.02
2022-11-04T06:47:00.191Z,30.04
2022-11-04T06:49:30.253Z,30.05
2022-11-04T06:52:00.489Z,30.04
2022-11-04T06:54:30.787Z,30.07
2022-11-04T06:57:01.079Z,30.07
2022-11-04T06:59:31.663Z,30.11
2022-11-04T07:02:01.956Z,30.10
2022-11-04T07:04:32.244Z,30.10
2022-11-04T13:42:19.399Z,29.60
2022-11-04T13:44:52.431Z,29.65
2022-11-04T13:47:35.303Z,29.65
2022-11-04T13:50:06.435Z,29.68
2022-11-04T13:52:38.570Z,29.70
2022-11-04T13:55:21.888Z,29.70
2022-11-04T13:58:04.259Z,29.73
2022-11-04T14:00:41.309Z,29.76
2022-11-04T14:03:29.633Z,29.82
2022-11-04T14:06:02.725Z,29.86
2022-11-04T14:08:33.929Z,29.88
2022-11-04T14:11:11.575Z,29.83
2022-11-04T14:13:46.640Z,29.88
2022-11-04T14:16:21.272Z,29.91
2022-11-04T14:18:53.452Z,29.88
2022-11-04T14:21:27.617Z,29.95
2022-11-04T14:24:04.772Z,29.84
2022-11-04T14:26:50.633Z,29.93
2022-11-04T14:29:26.904Z,30.00
2022-11-04T14:32:03.111Z,30.08
2022-11-04T14:34:37.653Z,29.97
2022-11-04T14:37:33.856Z,29.93
2022-11-04T14:40:08.058Z,29.78
2022-11-04T14:43:00.573Z,29.75
2022-11-04T14:45:41.586Z,29.73
2022-11-04T14:48:22.729Z,29.83
2022-11-04T14:50:57.305Z,29.93
2022-11-04T14:53:35.347Z,30.02
2022-11-04T14:56:23.254Z,30.01
2022-11-04T14:59:04.071Z,30.09
2022-11-04T15:01:37.688Z,30.09
2022-11-04T15:04:21.655Z,30.12
2022-11-04T15:06:59.921Z,30.17
2022-11-04T15:09:33.662Z,30.20
2022-11-04T15:12:34.697Z,30.21
2022-11-04T15:15:22.479Z,30.21
2022-11-04T15:17:52.903Z,30.24
2022-11-04T15:20:28.830Z,30.28
2022-11-04T15:23:02.643Z,30.23
2022-11-04T15:25:33.002Z,30.27
2022-11-04T15:28:03.340Z,30.28
2022-11-04T15:30:34.382Z,30.26
2022-11-04T15:33:06.218Z,30.22
2022-11-04T15:35:37.208Z,30.24
2022-11-04T15:38:07.642Z,30.22
2022-11-04T15:40:38.254Z,30.21
2022-11-04T15:43:09.659Z,30.15
2022-11-04T15:45:57.918Z,30.12
2022-11-04T15:48:31.660Z,30.08
2022-11-04T15:51:20.230Z,30.06
2022-11-04T15:53:56.920Z,30.05
2022-11-04T15:56:52.948Z,30.00
2022-11-04T15:59:28.215Z,30.06
2022-11-04T16:01:58.851Z,30.06
2022-11-04T16:04:31.457Z,30.03
2022-11-04T16:07:23.922Z,30.03
2022-11-04T16:09:56.580Z,30.06
2022-11-04T16:12:29.194Z,30.02
2022-11-04T16:15:02.847Z,30.02
2022-11-04T16:17:34.944Z,30.01
2022-11-04T16:20:11.449Z,30.00
2022-11-04T16:22:42.858Z,29.98
2022-11-04T16:25:25.406Z,29.97
2022-11-04T16:27:55.726Z,29.94
2022-11-04T16:30:27.441Z,29.91
2022-11-04T16:33:12.363Z,29.92
2022-11-04T16:35:45.272Z,29.91
2022-11-04T16:38:15.498Z,29.90
2022-11-04T16:40:48.741Z,29.86
2022-11-04T16:43:21.961Z,29.85
2022-11-04T16:45:54.301Z,29.86
2022-11-04T16:48:26.831Z,29.86
2022-11-04T16:50:58.895Z,29.85
2022-11-04T16:53:29.150Z,29.82
2022-11-04T16:56:00.916Z,29.81
2022-11-04T16:58:34.993Z,29.80
2022-11-04T17:01:05.946Z,29.80
2022-11-04T17:03:36.760Z,29.81
2022-11-04T17:06:07.260Z,29.77
2022-11-04T17:08:37.605Z,29.78
2022-11-04T17:11:08.706Z,29.76
2022-11-04T17:13:39.462Z,29.77
2022-11-04T17:16:13.003Z,29.76
2022-11-04T17:18:43.511Z,29.71
2022-11-04T17:21:19.317Z,29.70
2022-11-04T17:23:50.002Z,29.71
2022-11-04T17:26:20.211Z,29.71
2022-11-04T17:28:50.472Z,29.71
2022-11-04T17:31:22.505Z,29.64
2022-11-04T17:33:52.831Z,29.70
2022-11-04T17:36:24.190Z,29.65
2022-11-04T17:38:54.101Z,29.65
2022-11-04T17:41:42.330Z,29.64
2022-11-04T17:44:12.584Z,29.66
2022-11-04T17:46:49.809Z,29.65
2022-11-04T17:49:25.776Z,29.63
2022-11-04T17:51:58.947Z,29.64
2022-11-04T17:54:33.710Z,29.65
2022-11-04T17:57:04.205Z,29.67
2022-11-04T17:59:36.864Z,29.65
2022-11-04T18:02:08.184Z,29.64
2022-11-04T18:04:38.597Z,29.62
2022-11-04T18:07:09.128Z,29.64
2022-11-04T18:09:41.355Z,29.62
2022-11-04T18:12:30.209Z,29.61
2022-11-04T18:15:00.425Z,29.61
2022-11-04T18:17:31.065Z,29.59
2022-11-04T18:20:01.338Z,29.60
2022-11-04T18:22:31.611Z,29.58
2022-11-04T18:25:01.830Z,29.58
2022-11-04T18:27:32.377Z,29.61
2022-11-04T18:30:02.958Z,29.59
2022-11-04T18:32:33.356Z,29.61
2022-11-04T18:35:03.662Z,29.59
2022-11-04T18:37:34.057Z,29.59
2022-11-04T18:40:04.417Z,29.56
2022-11-04T18:42:34.748Z,29.58
2022-11-04T18:45:05.853Z,29.56
2022-11-04T18:47:36.063Z,29.55
2022-11-04T18:50:06.722Z,29.56
2022-11-04T18:52:36.952Z,29.58
2022-11-04T18:55:07.644Z,29.57
2022-11-04T18:57:38.409Z,29.59
2022-11-04T19:00:14.255Z,29.57
2022-11-04T19:02:47.192Z,29.60
2022-11-04T19:05:17.551Z,29.55
2022-11-04T19:07:48.429Z,29.56
2022-11-04T19:10:18.730Z,29.54
2022-11-04T19:13:07.253Z,29.53
2022-11-04T19:15:38.044Z,29.53
2022-11-04T19:18:08.589Z,29.53
2022-11-04T19:20:39.396Z,29.54
2022-11-04T19:23:09.791Z,29.53
2022-11-04T19:25:44.643Z,29.54
2022-11-04T19:31:06.078Z,29.53
2022-11-04T19:33:36.759Z,29.51
2022-11-04T19:36:09.649Z,29.53
2022-11-04T19:38:40.817Z,29.51
2022-11-04T19:41:35.052Z,29.49
2022-11-04T19:44:07.965Z,29.49
2022-11-04T19:46:39.528Z,29.50
2022-11-04T19:49:10.909Z,29.53
2022-11-04T19:51:42.358Z,29.51
2022-11-04T19:54:13.414Z,29.51
2022-11-04T19:56:44.235Z,29.52
2022-11-04T19:59:15.208Z,29.50
2022-11-04T20:01:45.590Z,29.51
2022-11-04T20:04:16.138Z,29.49
2022-11-04T20:06:46.709Z,29.50
2022-11-04T20:09:17.512Z,29.50
2022-11-04T20:12:06.158Z,29.49
2022-11-04T20:14:36.379Z,29.49
2022-11-04T20:17:09.001Z,29.46
2022-11-04T20:19:39.712Z,29.48
2022-11-04T20:22:10.449Z,29.49
2022-11-04T20:24:40.785Z,29.51
2022-11-04T20:27:11.541Z,29.50
2022-11-04T20:29:41.781Z,29.49
2022-11-04T20:32:12.528Z,29.51
2022-11-04T20:34:42.765Z,29.46
2022-11-04T20:37:14.740Z,29.49
2022-11-04T20:39:45.961Z,29.48
2022-11-04T20:42:16.222Z,29.46
2022-11-04T20:44:46.936Z,29.47
2022-11-04T20:47:19.669Z,29.49
2022-11-04T20:49:50.162Z,29.50
2022-11-04T20:52:20.651Z,29.47
2022-11-04T20:54:51.128Z,29.49
2022-11-04T20:57:21.438Z,29.45
2022-11-04T20:59:52.322Z,29.47
2022-11-04T21:02:25.137Z,29.42
2022-11-04T21:04:58.354Z,29.43
2022-11-04T21:07:28.572Z,29.42
2022-11-04T21:09:58.767Z,29.41
2022-11-04T21:12:29.008Z,29.44
2022-11-04T21:14:59.120Z,29.44
2022-11-04T21:17:29.499Z,29.42
2022-11-04T21:19:59.736Z,29.41
2022-11-04T21:22:30.213Z,29.41
2022-11-04T21:25:00.423Z,29.38
2022-11-04T21:27:30.667Z,29.38
2022-11-04T21:30:00.916Z,29.38
2022-11-04T21:32:31.529Z,29.38
2022-11-04T21:35:04.060Z,29.36
2022-11-04T21:37:37.077Z,29.35
2022-11-04T21:40:08.050Z,29.37
2022-11-04T21:42:38.449Z,29.34
2022-11-04T21:45:09.489Z,29.33
2022-11-04T21:47:39.710Z,29.33
2022-11-04T21:50:15.203Z,29.31
2022-11-04T21:52:48.639Z,29.31
2022-11-04T21:55:19.262Z,29.30
2022-11-04T21:57:49.519Z,29.33
2022-11-04T22:00:20.175Z,29.31
2022-11-04T22:02:53.594Z,29.31
2022-11-04T22:05:23.908Z,29.31
2022-11-04T22:08:12.517Z,29.29
2022-11-04T22:10:42.773Z,29.31
2022-11-04T22:13:13.200Z,29.34
2022-11-04T22:16:01.801Z,29.31
2022-11-04T22:18:35.650Z,29.31
2022-11-04T22:21:13.224Z,29.27
2022-11-04T22:23:44.225Z,29.31
2022-11-04T22:26:29.362Z,29.32
2022-11-04T22:29:00.505Z,29.32
2022-11-04T22:31:34.461Z,29.28
2022-11-04T22:34:05.629Z,29.31
2022-11-04T22:36:36.928Z,29.31
2022-11-04T22:39:11.966Z,29.38
2022-11-04T22:41:45.974Z,29.36
2022-11-04T22:44:17.117Z,29.33
2022-11-04T22:46:47.335Z,29.29
2022-11-04T22:49:18.629Z,29.05
2022-11-04T22:51:48.992Z,28.77
2022-11-04T22:54:20.718Z,28.65
2022-11-04T22:56:51.355Z,28.31
2022-11-04T22:59:21.571Z,28.48
2022-11-04T23:01:51.811Z,28.27
2022-11-04T23:04:22.071Z,28.20
2022-11-04T23:06:52.292Z,28.27
2022-11-04T23:09:22.577Z,28.26
2022-11-04T23:12:10.828Z,28.40
2022-11-04T23:14:59.260Z,28.33
2022-11-04T23:17:47.661Z,28.28
2022-11-04T23:20:20.442Z,28.25
2022-11-04T23:23:09.156Z,28.08
2022-11-04T23:25:39.704Z,27.80
2022-11-04T23:28:28.544Z,27.55
2022-11-04T23:31:01.534Z,27.69
2022-11-04T23:33:50.032Z,27.86
2022-11-04T23:36:38.366Z,27.99
2022-11-04T23:39:09.266Z,27.81
2022-11-04T23:41:57.918Z,27.87
2022-11-04T23:44:46.506Z,27.87
2022-11-04T23:47:34.963Z,27.72
2022-11-04T23:50:23.231Z,27.60
2022-11-04T23:53:11.894Z,27.78
2022-11-04T23:56:00.814Z,27.71
2022-11-04T23:58:49.508Z,27.68
